sensor_id;sensor_type;location;lat;lon;timestamp;P1;durP1;ratioP1;P2;durP2;ratioP2
57107;SDS011;42987;52.916;6.542;2022-09-09T00:04:22;17.92;;;16.02;;
57107;SDS011;42987;52.916;6.542;2022-09-09T00:18:39;13.88;;;12.48;;
57107;SDS011;42987;52.916;6.542;2022-09-09T00:21:37;11.95;;;10.82;;
57107;SDS011;42987;52.916;6.542;2022-09-09T00:27:01;15.45;;;13.82;;
57107;SDS011;42987;52.916;6.542;2022-09-09T00:29:53;15.43;;;13.40;;
57107;SDS011;42987;52.916;6.542;2022-09-09T00:32:43;13.85;;;12.63;;
57107;SDS011;42987;52.916;6.542;2022-09-09T00:37:38;36.03;;;21.75;;
57107;SDS011;42987;52.916;6.542;2022-09-09T00:40:42;13.70;;;12.50;;
57107;SDS011;42987;52.916;6.542;2022-09-09T00:48:37;15.98;;;14.10;;
57107;SDS011;42987;52.916;6.542;2022-09-09T00:51:12;14.93;;;13.25;;
57107;SDS011;42987;52.916;6.542;2022-09-09T00:54:06;16.88;;;13.90;;
57107;SDS011;42987;52.916;6.542;2022-09-09T00:59:28;13.52;;;12.27;;
57107;SDS011;42987;52.916;6.542;2022-09-09T01:02:25;15.98;;;14.10;;
57107;SDS011;42987;52.916;6.542;2022-09-09T01:05:02;13.57;;;11.60;;
57107;SDS011;42987;52.916;6.542;2022-09-09T01:07:36;12.30;;;11.02;;
57107;SDS011;42987;52.916;6.542;2022-09-09T01:10:15;12.98;;;11.68;;
57107;SDS011;42987;52.916;6.542;2022-09-09T01:12:51;15.10;;;13.35;;
57107;SDS011;42987;52.916;6.542;2022-09-09T01:15:22;17.60;;;13.57;;
57107;SDS011;42987;52.916;6.542;2022-09-09T01:26:17;18.33;;;12.98;;
57107;SDS011;42987;52.916;6.542;2022-09-09T01:28:55;15.15;;;13.35;;
57107;SDS011;42987;52.916;6.542;2022-09-09T01:31:52;16.52;;;14.02;;
57107;SDS011;42987;52.916;6.542;2022-09-09T01:34:22;15.85;;;13.90;;
57107;SDS011;42987;52.916;6.542;2022-09-09T01:39:35;17.52;;;14.15;;
57107;SDS011;42987;52.916;6.542;2022-09-09T01:42:02;15.38;;;13.02;;
57107;SDS011;42987;52.916;6.542;2022-09-09T01:44:30;16.80;;;12.10;;
57107;SDS011;42987;52.916;6.542;2022-09-09T01:46:56;15.23;;;12.90;;
57107;SDS011;42987;52.916;6.542;2022-09-09T01:49:22;16.45;;;13.95;;
57107;SDS011;42987;52.916;6.542;2022-09-09T01:51:52;22.15;;;16.63;;
57107;SDS011;42987;52.916;6.542;2022-09-09T01:54:20;13.98;;;12.57;;
57107;SDS011;42987;52.916;6.542;2022-09-09T02:04:50;16.25;;;13.00;;
57107;SDS011;42987;52.916;6.542;2022-09-09T02:12:40;15.95;;;12.18;;
57107;SDS011;42987;52.916;6.542;2022-09-09T02:15:13;15.63;;;11.75;;
57107;SDS011;42987;52.916;6.542;2022-09-09T02:17:51;17.60;;;13.65;;
57107;SDS011;42987;52.916;6.542;2022-09-09T02:23:03;15.00;;;12.35;;
57107;SDS011;42987;52.916;6.542;2022-09-09T02:25:31;15.43;;;10.80;;
57107;SDS011;42987;52.916;6.542;2022-09-09T02:28:04;13.32;;;10.68;;
57107;SDS011;42987;52.916;6.542;2022-09-09T02:30:32;14.73;;;10.97;;
57107;SDS011;42987;52.916;6.542;2022-09-09T02:33:03;15.23;;;11.65;;
57107;SDS011;42987;52.916;6.542;2022-09-09T02:35:32;12.57;;;10.43;;
57107;SDS011;42987;52.916;6.542;2022-09-09T02:38:03;16.45;;;11.63;;
57107;SDS011;42987;52.916;6.542;2022-09-09T02:40:34;14.63;;;13.05;;
57107;SDS011;42987;52.916;6.542;2022-09-09T02:43:00;16.67;;;12.27;;
57107;SDS011;42987;52.916;6.542;2022-09-09T02:45:27;17.02;;;13.10;;
57107;SDS011;42987;52.916;6.542;2022-09-09T02:48:17;16.77;;;12.98;;
57107;SDS011;42987;52.916;6.542;2022-09-09T02:53:18;16.63;;;12.32;;
57107;SDS011;42987;52.916;6.542;2022-09-09T02:55:54;14.85;;;12.95;;
57107;SDS011;42987;52.916;6.542;2022-09-09T02:58:25;15.00;;;11.18;;
57107;SDS011;42987;52.916;6.542;2022-09-09T03:00:51;14.32;;;11.50;;
57107;SDS011;42987;52.916;6.542;2022-09-09T03:03:18;15.85;;;12.70;;
57107;SDS011;42987;52.916;6.542;2022-09-09T03:05:45;12.52;;;10.98;;
57107;SDS011;42987;52.916;6.542;2022-09-09T03:08:11;13.63;;;10.82;;
57107;SDS011;42987;52.916;6.542;2022-09-09T03:10:38;14.82;;;10.60;;
57107;SDS011;42987;52.916;6.542;2022-09-09T03:13:04;16.10;;;10.30;;
57107;SDS011;42987;52.916;6.542;2022-09-09T03:15:34;12.77;;;9.98;;
57107;SDS011;42987;52.916;6.542;2022-09-09T03:18:00;14.20;;;11.30;;
57107;SDS011;42987;52.916;6.542;2022-09-09T03:20:30;16.65;;;12.02;;
57107;SDS011;42987;52.916;6.542;2022-09-09T03:22:56;12.90;;;10.48;;
57107;SDS011;42987;52.916;6.542;2022-09-09T03:25:24;16.70;;;12.18;;
57107;SDS011;42987;52.916;6.542;2022-09-09T03:27:51;11.60;;;10.30;;
57107;SDS011;42987;52.916;6.542;2022-09-09T03:30:20;11.07;;;9.82;;
57107;SDS011;42987;52.916;6.542;2022-09-09T03:35:15;15.90;;;11.52;;
57107;SDS011;42987;52.916;6.542;2022-09-09T03:37:41;12.05;;;9.93;;
57107;SDS011;42987;52.916;6.542;2022-09-09T03:40:08;11.02;;;8.80;;
57107;SDS011;42987;52.916;6.542;2022-09-09T03:42:35;9.52;;;8.25;;
57107;SDS011;42987;52.916;6.542;2022-09-09T03:45:02;17.42;;;11.90;;
57107;SDS011;42987;52.916;6.542;2022-09-09T03:47:30;10.55;;;8.65;;
57107;SDS011;42987;52.916;6.542;2022-09-09T03:49:55;13.65;;;10.27;;
57107;SDS011;42987;52.916;6.542;2022-09-09T03:52:21;10.82;;;9.40;;
57107;SDS011;42987;52.916;6.542;2022-09-09T03:54:50;10.27;;;9.05;;
57107;SDS011;42987;52.916;6.542;2022-09-09T03:57:16;11.18;;;9.98;;
57107;SDS011;42987;52.916;6.542;2022-09-09T03:59:42;14.65;;;11.57;;
57107;SDS011;42987;52.916;6.542;2022-09-09T04:02:08;13.82;;;11.60;;
57107;SDS011;42987;52.916;6.542;2022-09-09T04:04:34;12.02;;;10.77;;
57107;SDS011;42987;52.916;6.542;2022-09-09T04:07:03;12.88;;;11.57;;
57107;SDS011;42987;52.916;6.542;2022-09-09T04:09:32;12.20;;;10.88;;
57107;SDS011;42987;52.916;6.542;2022-09-09T04:11:58;14.75;;;13.25;;
57107;SDS011;42987;52.916;6.542;2022-09-09T04:14:23;16.25;;;14.60;;
57107;SDS011;42987;52.916;6.542;2022-09-09T04:16:54;16.10;;;13.35;;
57107;SDS011;42987;52.916;6.542;2022-09-09T04:19:21;13.35;;;11.95;;
57107;SDS011;42987;52.916;6.542;2022-09-09T04:21:46;15.27;;;13.65;;
57107;SDS011;42987;52.916;6.542;2022-09-09T04:24:16;19.42;;;15.27;;
57107;SDS011;42987;52.916;6.542;2022-09-09T04:26:42;15.77;;;12.88;;
57107;SDS011;42987;52.916;6.542;2022-09-09T04:29:08;13.98;;;12.55;;
57107;SDS011;42987;52.916;6.542;2022-09-09T04:31:34;15.00;;;13.30;;
57107;SDS011;42987;52.916;6.542;2022-09-09T04:33:59;18.10;;;14.60;;
57107;SDS011;42987;52.916;6.542;2022-09-09T04:36:31;22.75;;;16.40;;
57107;SDS011;42987;52.916;6.542;2022-09-09T04:38:58;17.67;;;14.82;;
57107;SDS011;42987;52.916;6.542;2022-09-09T04:41:24;19.10;;;15.18;;
57107;SDS011;42987;52.916;6.542;2022-09-09T04:43:50;16.95;;;15.02;;
57107;SDS011;42987;52.916;6.542;2022-09-09T04:46:19;27.85;;;18.35;;
57107;SDS011;42987;52.916;6.542;2022-09-09T04:48:46;18.02;;;14.82;;
57107;SDS011;42987;52.916;6.542;2022-09-09T04:51:13;20.52;;;16.27;;
57107;SDS011;42987;52.916;6.542;2022-09-09T04:53:42;18.90;;;16.15;;
57107;SDS011;42987;52.916;6.542;2022-09-09T04:56:12;23.45;;;18.80;;
57107;SDS011;42987;52.916;6.542;2022-09-09T04:58:41;21.65;;;18.08;;
57107;SDS011;42987;52.916;6.542;2022-09-09T05:01:14;19.08;;;16.67;;
57107;SDS011;42987;52.916;6.542;2022-09-09T05:03:45;27.10;;;19.77;;
57107;SDS011;42987;52.916;6.542;2022-09-09T05:06:12;18.50;;;16.52;;
57107;SDS011;42987;52.916;6.542;2022-09-09T05:08:40;18.35;;;16.33;;
57107;SDS011;42987;52.916;6.542;2022-09-09T05:13:44;21.15;;;16.55;;
57107;SDS011;42987;52.916;6.542;2022-09-09T05:16:11;20.85;;;16.38;;
57107;SDS011;42987;52.916;6.542;2022-09-09T05:18:38;22.40;;;18.00;;
57107;SDS011;42987;52.916;6.542;2022-09-09T05:21:14;20.92;;;17.77;;
57107;SDS011;42987;52.916;6.542;2022-09-09T05:23:41;19.33;;;16.83;;
57107;SDS011;42987;52.916;6.542;2022-09-09T05:26:08;19.90;;;17.80;;
57107;SDS011;42987;52.916;6.542;2022-09-09T05:31:07;17.10;;;15.40;;
57107;SDS011;42987;52.916;6.542;2022-09-09T05:33:34;17.30;;;15.50;;
57107;SDS011;42987;52.916;6.542;2022-09-09T05:36:02;16.73;;;14.25;;
57107;SDS011;42987;52.916;6.542;2022-09-09T05:38:30;16.35;;;14.65;;
57107;SDS011;42987;52.916;6.542;2022-09-09T05:40:58;17.38;;;15.48;;
57107;SDS011;42987;52.916;6.542;2022-09-09T05:43:25;18.80;;;16.75;;
57107;SDS011;42987;52.916;6.542;2022-09-09T05:48:34;16.38;;;14.60;;
57107;SDS011;42987;52.916;6.542;2022-09-09T05:51:02;16.83;;;15.02;;
57107;SDS011;42987;52.916;6.542;2022-09-09T05:53:29;19.15;;;15.60;;
57107;SDS011;42987;52.916;6.542;2022-09-09T05:56:03;15.75;;;14.15;;
57107;SDS011;42987;52.916;6.542;2022-09-09T05:58:38;18.13;;;16.08;;
57107;SDS011;42987;52.916;6.542;2022-09-09T06:01:11;20.42;;;16.48;;
57107;SDS011;42987;52.916;6.542;2022-09-09T06:03:39;17.33;;;15.48;;
57107;SDS011;42987;52.916;6.542;2022-09-09T06:06:07;18.15;;;16.25;;
57107;SDS011;42987;52.916;6.542;2022-09-09T06:08:39;16.60;;;14.82;;
57107;SDS011;42987;52.916;6.542;2022-09-09T06:11:10;16.95;;;14.77;;
57107;SDS011;42987;52.916;6.542;2022-09-09T06:13:37;21.80;;;17.10;;
57107;SDS011;42987;52.916;6.542;2022-09-09T06:16:14;22.00;;;17.92;;
57107;SDS011;42987;52.916;6.542;2022-09-09T06:18:41;17.20;;;15.40;;
57107;SDS011;42987;52.916;6.542;2022-09-09T06:21:15;16.73;;;14.93;;
57107;SDS011;42987;52.916;6.542;2022-09-09T06:23:43;17.15;;;15.25;;
57107;SDS011;42987;52.916;6.542;2022-09-09T06:26:13;15.35;;;13.90;;
57107;SDS011;42987;52.916;6.542;2022-09-09T06:28:42;16.58;;;14.77;;
57107;SDS011;42987;52.916;6.542;2022-09-09T06:31:10;16.40;;;14.68;;
57107;SDS011;42987;52.916;6.542;2022-09-09T06:33:38;16.33;;;14.73;;
57107;SDS011;42987;52.916;6.542;2022-09-09T06:36:42;17.30;;;14.88;;
57107;SDS011;42987;52.916;6.542;2022-09-09T06:39:02;14.50;;;13.10;;
57107;SDS011;42987;52.916;6.542;2022-09-09T06:41:30;21.17;;;16.23;;
57107;SDS011;42987;52.916;6.542;2022-09-09T06:43:56;15.88;;;14.18;;
57107;SDS011;42987;52.916;6.542;2022-09-09T06:46:26;17.55;;;15.75;;
57107;SDS011;42987;52.916;6.542;2022-09-09T06:48:56;16.77;;;14.13;;
57107;SDS011;42987;52.916;6.542;2022-09-09T06:51:29;15.90;;;14.27;;
57107;SDS011;42987;52.916;6.542;2022-09-09T06:53:57;16.35;;;14.05;;
57107;SDS011;42987;52.916;6.542;2022-09-09T06:56:28;16.33;;;14.50;;
57107;SDS011;42987;52.916;6.542;2022-09-09T06:58:56;15.32;;;13.48;;
57107;SDS011;42987;52.916;6.542;2022-09-09T07:01:28;16.65;;;14.95;;
57107;SDS011;42987;52.916;6.542;2022-09-09T07:03:58;15.38;;;13.85;;
57107;SDS011;42987;52.916;6.542;2022-09-09T07:06:28;15.77;;;13.88;;
57107;SDS011;42987;52.916;6.542;2022-09-09T07:08:57;17.52;;;14.25;;
57107;SDS011;42987;52.916;6.542;2022-09-09T07:11:29;14.35;;;12.90;;
57107;SDS011;42987;52.916;6.542;2022-09-09T07:14:00;17.58;;;13.75;;
57107;SDS011;42987;52.916;6.542;2022-09-09T07:16:26;14.18;;;12.73;;
57107;SDS011;42987;52.916;6.542;2022-09-09T07:18:54;13.82;;;11.90;;
57107;SDS011;42987;52.916;6.542;2022-09-09T07:21:24;14.02;;;11.98;;
57107;SDS011;42987;52.916;6.542;2022-09-09T07:23:51;14.05;;;11.73;;
57107;SDS011;42987;52.916;6.542;2022-09-09T07:26:18;12.15;;;10.85;;
57107;SDS011;42987;52.916;6.542;2022-09-09T07:28:45;13.55;;;11.45;;
57107;SDS011;42987;52.916;6.542;2022-09-09T07:31:14;14.45;;;12.57;;
57107;SDS011;42987;52.916;6.542;2022-09-09T07:33:47;12.77;;;10.75;;
57107;SDS011;42987;52.916;6.542;2022-09-09T07:36:18;10.27;;;9.27;;
57107;SDS011;42987;52.916;6.542;2022-09-09T07:38:49;11.05;;;9.68;;
57107;SDS011;42987;52.916;6.542;2022-09-09T07:41:21;12.32;;;10.38;;
57107;SDS011;42987;52.916;6.542;2022-09-09T07:43:48;10.95;;;8.85;;
57107;SDS011;42987;52.916;6.542;2022-09-09T07:46:16;10.50;;;9.38;;
57107;SDS011;42987;52.916;6.542;2022-09-09T07:48:44;11.07;;;9.25;;
57107;SDS011;42987;52.916;6.542;2022-09-09T07:51:22;9.63;;;8.32;;
57107;SDS011;42987;52.916;6.542;2022-09-09T07:53:54;10.13;;;8.95;;
57107;SDS011;42987;52.916;6.542;2022-09-09T07:56:25;11.00;;;9.18;;
57107;SDS011;42987;52.916;6.542;2022-09-09T07:58:52;10.18;;;8.88;;
57107;SDS011;42987;52.916;6.542;2022-09-09T08:04:09;11.40;;;8.95;;
57107;SDS011;42987;52.916;6.542;2022-09-09T08:06:41;11.77;;;8.68;;
57107;SDS011;42987;52.916;6.542;2022-09-09T08:09:14;9.50;;;8.40;;
57107;SDS011;42987;52.916;6.542;2022-09-09T08:11:41;12.00;;;9.15;;
57107;SDS011;42987;52.916;6.542;2022-09-09T08:14:08;11.25;;;7.72;;
57107;SDS011;42987;52.916;6.542;2022-09-09T08:16:38;10.82;;;7.72;;
57107;SDS011;42987;52.916;6.542;2022-09-09T08:19:09;10.52;;;7.82;;
57107;SDS011;42987;52.916;6.542;2022-09-09T08:21:36;11.15;;;7.68;;
57107;SDS011;42987;52.916;6.542;2022-09-09T08:24:06;9.63;;;8.27;;
57107;SDS011;42987;52.916;6.542;2022-09-09T08:26:34;9.60;;;7.38;;
57107;SDS011;42987;52.916;6.542;2022-09-09T08:29:03;9.77;;;8.00;;
57107;SDS011;42987;52.916;6.542;2022-09-09T08:31:35;10.73;;;7.75;;
57107;SDS011;42987;52.916;6.542;2022-09-09T08:34:04;11.45;;;7.90;;
57107;SDS011;42987;52.916;6.542;2022-09-09T08:36:35;10.98;;;8.43;;
57107;SDS011;42987;52.916;6.542;2022-09-09T08:39:09;11.80;;;8.43;;
57107;SDS011;42987;52.916;6.542;2022-09-09T08:44:31;11.60;;;9.07;;
57107;SDS011;42987;52.916;6.542;2022-09-09T08:55:50;11.73;;;6.53;;
57107;SDS011;42987;52.916;6.542;2022-09-09T09:00:54;9.68;;;6.10;;
57107;SDS011;42987;52.916;6.542;2022-09-09T09:06:45;9.57;;;6.03;;
57107;SDS011;42987;52.916;6.542;2022-09-09T09:12:35;8.80;;;5.00;;
57107;SDS011;42987;52.916;6.542;2022-09-09T09:15:17;12.45;;;5.22;;
57107;SDS011;42987;52.916;6.542;2022-09-09T09:17:46;9.75;;;5.22;;
57107;SDS011;42987;52.916;6.542;2022-09-09T09:20:14;11.38;;;4.35;;
57107;SDS011;42987;52.916;6.542;2022-09-09T09:22:48;12.68;;;5.07;;
57107;SDS011;42987;52.916;6.542;2022-09-09T09:28:00;9.20;;;4.32;;
57107;SDS011;42987;52.916;6.542;2022-09-09T09:30:53;9.68;;;4.07;;
57107;SDS011;42987;52.916;6.542;2022-09-09T09:35:58;9.35;;;4.38;;
57107;SDS011;42987;52.916;6.542;2022-09-09T09:38:25;8.18;;;3.60;;
57107;SDS011;42987;52.916;6.542;2022-09-09T09:40:57;8.35;;;3.58;;
57107;SDS011;42987;52.916;6.542;2022-09-09T09:43:25;8.07;;;2.95;;
57107;SDS011;42987;52.916;6.542;2022-09-09T09:45:59;9.38;;;3.60;;
57107;SDS011;42987;52.916;6.542;2022-09-09T09:48:26;9.38;;;3.20;;
57107;SDS011;42987;52.916;6.542;2022-09-09T09:51:00;10.75;;;3.75;;
57107;SDS011;42987;52.916;6.542;2022-09-09T09:53:31;14.57;;;3.70;;
57107;SDS011;42987;52.916;6.542;2022-09-09T09:58:26;7.55;;;3.13;;
57107;SDS011;42987;52.916;6.542;2022-09-09T10:00:57;7.72;;;2.90;;
57107;SDS011;42987;52.916;6.542;2022-09-09T10:05:55;7.18;;;2.70;;
57107;SDS011;42987;52.916;6.542;2022-09-09T10:08:22;9.95;;;2.72;;
57107;SDS011;42987;52.916;6.542;2022-09-09T10:10:58;9.45;;;3.03;;
57107;SDS011;42987;52.916;6.542;2022-09-09T10:16:09;7.70;;;2.45;;
57107;SDS011;42987;52.916;6.542;2022-09-09T10:18:58;5.65;;;2.47;;
57107;SDS011;42987;52.916;6.542;2022-09-09T10:21:37;7.82;;;2.92;;
57107;SDS011;42987;52.916;6.542;2022-09-09T10:32:50;9.63;;;2.42;;
57107;SDS011;42987;52.916;6.542;2022-09-09T10:35:49;7.60;;;2.08;;
57107;SDS011;42987;52.916;6.542;2022-09-09T10:38:40;8.50;;;2.55;;
57107;SDS011;42987;52.916;6.542;2022-09-09T10:41:18;9.60;;;2.45;;
57107;SDS011;42987;52.916;6.542;2022-09-09T10:44:02;6.65;;;2.00;;
57107;SDS011;42987;52.916;6.542;2022-09-09T10:46:53;7.82;;;2.47;;
57107;SDS011;42987;52.916;6.542;2022-09-09T10:50:05;8.18;;;2.10;;
57107;SDS011;42987;52.916;6.542;2022-09-09T10:55:51;7.97;;;2.07;;
57107;SDS011;42987;52.916;6.542;2022-09-09T10:58:25;6.95;;;2.38;;
57107;SDS011;42987;52.916;6.542;2022-09-09T11:01:01;8.85;;;2.80;;
57107;SDS011;42987;52.916;6.542;2022-09-09T11:03:54;6.32;;;2.00;;
57107;SDS011;42987;52.916;6.542;2022-09-09T11:06:30;8.05;;;2.30;;
57107;SDS011;42987;52.916;6.542;2022-09-09T11:09:01;8.52;;;2.30;;
57107;SDS011;42987;52.916;6.542;2022-09-09T11:14:32;6.18;;;2.05;;
57107;SDS011;42987;52.916;6.542;2022-09-09T11:17:15;5.60;;;2.00;;
57107;SDS011;42987;52.916;6.542;2022-09-09T11:19:45;8.02;;;2.40;;
57107;SDS011;42987;52.916;6.542;2022-09-09T11:30:52;7.03;;;1.88;;
57107;SDS011;42987;52.916;6.542;2022-09-09T11:38:45;5.10;;;1.90;;
57107;SDS011;42987;52.916;6.542;2022-09-09T11:41:13;7.13;;;1.70;;
57107;SDS011;42987;52.916;6.542;2022-09-09T11:46:06;6.63;;;2.08;;
57107;SDS011;42987;52.916;6.542;2022-09-09T11:48:43;7.78;;;1.90;;
57107;SDS011;42987;52.916;6.542;2022-09-09T11:56:25;8.68;;;2.38;;
57107;SDS011;42987;52.916;6.542;2022-09-09T11:59:17;8.10;;;1.95;;
57107;SDS011;42987;52.916;6.542;2022-09-09T12:02:02;7.22;;;2.47;;
57107;SDS011;42987;52.916;6.542;2022-09-09T12:04:39;6.88;;;2.42;;
57107;SDS011;42987;52.916;6.542;2022-09-09T12:12:43;7.00;;;2.22;;
57107;SDS011;42987;52.916;6.542;2022-09-09T12:17:42;6.53;;;2.00;;
57107;SDS011;42987;52.916;6.542;2022-09-09T12:31:21;7.72;;;1.80;;
57107;SDS011;42987;52.916;6.542;2022-09-09T12:34:02;5.20;;;1.70;;
57107;SDS011;42987;52.916;6.542;2022-09-09T12:36:36;4.80;;;1.58;;
57107;SDS011;42987;52.916;6.542;2022-09-09T12:41:58;5.80;;;1.75;;
57107;SDS011;42987;52.916;6.542;2022-09-09T12:44:25;6.45;;;1.52;;
57107;SDS011;42987;52.916;6.542;2022-09-09T12:46:53;7.32;;;1.92;;
57107;SDS011;42987;52.916;6.542;2022-09-09T12:49:32;5.55;;;1.60;;
57107;SDS011;42987;52.916;6.542;2022-09-09T12:52:07;5.65;;;2.25;;
57107;SDS011;42987;52.916;6.542;2022-09-09T12:54:44;7.75;;;1.95;;
57107;SDS011;42987;52.916;6.542;2022-09-09T12:57:16;7.22;;;1.88;;
57107;SDS011;42987;52.916;6.542;2022-09-09T12:59:43;5.25;;;1.77;;
57107;SDS011;42987;52.916;6.542;2022-09-09T13:02:26;5.55;;;1.70;;
57107;SDS011;42987;52.916;6.542;2022-09-09T13:04:53;9.55;;;2.40;;
57107;SDS011;42987;52.916;6.542;2022-09-09T13:07:19;7.57;;;2.40;;
57107;SDS011;42987;52.916;6.542;2022-09-09T13:09:47;7.57;;;2.17;;
57107;SDS011;42987;52.916;6.542;2022-09-09T13:12:16;8.23;;;2.67;;
57107;SDS011;42987;52.916;6.542;2022-09-09T13:14:51;5.93;;;1.90;;
57107;SDS011;42987;52.916;6.542;2022-09-09T13:17:21;7.75;;;2.53;;
57107;SDS011;42987;52.916;6.542;2022-09-09T13:19:48;6.35;;;1.88;;
57107;SDS011;42987;52.916;6.542;2022-09-09T13:25:06;5.50;;;1.90;;
57107;SDS011;42987;52.916;6.542;2022-09-09T13:27:40;6.60;;;1.85;;
57107;SDS011;42987;52.916;6.542;2022-09-09T13:32:59;5.88;;;1.77;;
57107;SDS011;42987;52.916;6.542;2022-09-09T13:35:48;5.38;;;1.70;;
57107;SDS011;42987;52.916;6.542;2022-09-09T13:38:19;5.03;;;1.60;;
57107;SDS011;42987;52.916;6.542;2022-09-09T13:43:42;6.40;;;1.42;;
57107;SDS011;42987;52.916;6.542;2022-09-09T13:49:00;4.75;;;1.25;;
57107;SDS011;42987;52.916;6.542;2022-09-09T13:51:40;6.22;;;1.63;;
57107;SDS011;42987;52.916;6.542;2022-09-09T13:54:12;4.68;;;1.42;;
57107;SDS011;42987;52.916;6.542;2022-09-09T13:56:42;2.78;;;1.20;;
57107;SDS011;42987;52.916;6.542;2022-09-09T13:59:11;5.00;;;4.20;;
57107;SDS011;42987;52.916;6.542;2022-09-09T14:01:46;5.88;;;4.55;;
57107;SDS011;42987;52.916;6.542;2022-09-09T14:04:14;10.10;;;9.10;;
57107;SDS011;42987;52.916;6.542;2022-09-09T14:06:40;4.38;;;3.90;;
57107;SDS011;42987;52.916;6.542;2022-09-09T14:09:07;4.32;;;1.75;;
57107;SDS011;42987;52.916;6.542;2022-09-09T14:11:36;4.15;;;1.42;;
57107;SDS011;42987;52.916;6.542;2022-09-09T14:14:02;4.00;;;1.33;;
57107;SDS011;42987;52.916;6.542;2022-09-09T14:16:28;4.93;;;1.58;;
57107;SDS011;42987;52.916;6.542;2022-09-09T14:18:55;5.82;;;1.25;;
57107;SDS011;42987;52.916;6.542;2022-09-09T14:21:24;3.97;;;1.33;;
57107;SDS011;42987;52.916;6.542;2022-09-09T14:23:51;4.63;;;1.45;;
57107;SDS011;42987;52.916;6.542;2022-09-09T14:26:20;4.75;;;1.40;;
57107;SDS011;42987;52.916;6.542;2022-09-09T14:28:47;4.78;;;1.23;;
57107;SDS011;42987;52.916;6.542;2022-09-09T14:31:13;3.70;;;0.93;;
57107;SDS011;42987;52.916;6.542;2022-09-09T14:33:39;4.65;;;1.00;;
57107;SDS011;42987;52.916;6.542;2022-09-09T14:36:08;3.78;;;0.60;;
57107;SDS011;42987;52.916;6.542;2022-09-09T14:38:35;2.35;;;0.73;;
57107;SDS011;42987;52.916;6.542;2022-09-09T14:41:09;2.53;;;0.80;;
57107;SDS011;42987;52.916;6.542;2022-09-09T14:43:39;2.70;;;0.70;;
57107;SDS011;42987;52.916;6.542;2022-09-09T14:46:09;3.78;;;0.80;;
57107;SDS011;42987;52.916;6.542;2022-09-09T14:48:37;2.95;;;0.90;;
57107;SDS011;42987;52.916;6.542;2022-09-09T14:51:09;3.15;;;0.95;;
57107;SDS011;42987;52.916;6.542;2022-09-09T14:53:41;2.00;;;0.75;;
57107;SDS011;42987;52.916;6.542;2022-09-09T14:56:08;4.18;;;0.85;;
57107;SDS011;42987;52.916;6.542;2022-09-09T14:58:38;2.83;;;0.90;;
57107;SDS011;42987;52.916;6.542;2022-09-09T15:01:06;2.80;;;1.00;;
57107;SDS011;42987;52.916;6.542;2022-09-09T15:03:39;2.95;;;0.85;;
57107;SDS011;42987;52.916;6.542;2022-09-09T15:06:10;3.33;;;0.98;;
57107;SDS011;42987;52.916;6.542;2022-09-09T15:08:39;3.50;;;1.10;;
57107;SDS011;42987;52.916;6.542;2022-09-09T15:11:06;4.68;;;1.15;;
57107;SDS011;42987;52.916;6.542;2022-09-09T15:13:33;4.15;;;1.08;;
57107;SDS011;42987;52.916;6.542;2022-09-09T15:16:06;4.18;;;0.93;;
57107;SDS011;42987;52.916;6.542;2022-09-09T15:18:33;4.05;;;1.10;;
57107;SDS011;42987;52.916;6.542;2022-09-09T15:21:14;3.13;;;1.05;;
57107;SDS011;42987;52.916;6.542;2022-09-09T15:23:44;5.68;;;1.48;;
57107;SDS011;42987;52.916;6.542;2022-09-09T15:26:10;3.97;;;1.10;;
57107;SDS011;42987;52.916;6.542;2022-09-09T15:28:39;5.05;;;1.20;;
57107;SDS011;42987;52.916;6.542;2022-09-09T15:31:27;5.43;;;1.30;;
57107;SDS011;42987;52.916;6.542;2022-09-09T15:34:04;2.92;;;1.10;;
57107;SDS011;42987;52.916;6.542;2022-09-09T15:39:12;5.57;;;1.50;;
57107;SDS011;42987;52.916;6.542;2022-09-09T15:41:41;3.08;;;1.10;;
57107;SDS011;42987;52.916;6.542;2022-09-09T15:44:10;3.22;;;1.05;;
57107;SDS011;42987;52.916;6.542;2022-09-09T15:46:38;3.80;;;1.55;;
57107;SDS011;42987;52.916;6.542;2022-09-09T15:51:45;3.25;;;1.30;;
57107;SDS011;42987;52.916;6.542;2022-09-09T15:54:16;3.75;;;1.48;;
57107;SDS011;42987;52.916;6.542;2022-09-09T15:56:56;5.93;;;1.40;;
57107;SDS011;42987;52.916;6.542;2022-09-09T15:59:23;5.00;;;1.33;;
57107;SDS011;42987;52.916;6.542;2022-09-09T16:01:50;3.00;;;1.13;;
57107;SDS011;42987;52.916;6.542;2022-09-09T16:04:17;3.75;;;1.00;;
57107;SDS011;42987;52.916;6.542;2022-09-09T16:06:51;3.97;;;1.35;;
57107;SDS011;42987;52.916;6.542;2022-09-09T16:09:18;3.53;;;1.40;;
57107;SDS011;42987;52.916;6.542;2022-09-09T16:11:44;3.47;;;1.42;;
57107;SDS011;42987;52.916;6.542;2022-09-09T16:14:11;3.80;;;1.33;;
57107;SDS011;42987;52.916;6.542;2022-09-09T16:16:38;3.60;;;1.30;;
57107;SDS011;42987;52.916;6.542;2022-09-09T16:19:07;3.05;;;1.20;;
57107;SDS011;42987;52.916;6.542;2022-09-09T16:21:44;3.92;;;1.10;;
57107;SDS011;42987;52.916;6.542;2022-09-09T16:24:13;3.90;;;1.30;;
57107;SDS011;42987;52.916;6.542;2022-09-09T16:26:43;4.88;;;1.67;;
57107;SDS011;42987;52.916;6.542;2022-09-09T16:29:12;4.85;;;1.58;;
57107;SDS011;42987;52.916;6.542;2022-09-09T16:31:39;6.40;;;1.70;;
57107;SDS011;42987;52.916;6.542;2022-09-09T16:34:06;5.55;;;1.83;;
57107;SDS011;42987;52.916;6.542;2022-09-09T16:36:33;4.90;;;1.40;;
57107;SDS011;42987;52.916;6.542;2022-09-09T16:39:11;4.57;;;1.50;;
57107;SDS011;42987;52.916;6.542;2022-09-09T16:41:42;5.15;;;1.75;;
57107;SDS011;42987;52.916;6.542;2022-09-09T16:44:10;3.58;;;1.60;;
57107;SDS011;42987;52.916;6.542;2022-09-09T16:46:38;3.80;;;1.40;;
57107;SDS011;42987;52.916;6.542;2022-09-09T16:49:07;3.08;;;1.30;;
57107;SDS011;42987;52.916;6.542;2022-09-09T16:51:39;4.05;;;1.60;;
57107;SDS011;42987;52.916;6.542;2022-09-09T16:54:10;4.88;;;1.80;;
57107;SDS011;42987;52.916;6.542;2022-09-09T16:56:37;4.65;;;1.60;;
57107;SDS011;42987;52.916;6.542;2022-09-09T16:59:07;6.35;;;2.25;;
57107;SDS011;42987;52.916;6.542;2022-09-09T17:01:39;5.82;;;2.47;;
57107;SDS011;42987;52.916;6.542;2022-09-09T17:04:10;4.93;;;2.30;;
57107;SDS011;42987;52.916;6.542;2022-09-09T17:06:45;4.13;;;2.10;;
57107;SDS011;42987;52.916;6.542;2022-09-09T17:09:14;5.83;;;2.40;;
57107;SDS011;42987;52.916;6.542;2022-09-09T17:11:41;9.95;;;2.40;;
57107;SDS011;42987;52.916;6.542;2022-09-09T17:14:07;5.57;;;2.15;;
57107;SDS011;42987;52.916;6.542;2022-09-09T17:16:35;4.65;;;2.10;;
57107;SDS011;42987;52.916;6.542;2022-09-09T17:19:04;6.30;;;2.40;;
57107;SDS011;42987;52.916;6.542;2022-09-09T17:21:34;5.15;;;2.22;;
57107;SDS011;42987;52.916;6.542;2022-09-09T17:24:01;5.25;;;2.50;;
57107;SDS011;42987;52.916;6.542;2022-09-09T17:26:28;4.78;;;2.53;;
57107;SDS011;42987;52.916;6.542;2022-09-09T17:28:55;7.18;;;2.55;;
57107;SDS011;42987;52.916;6.542;2022-09-09T17:31:23;5.40;;;2.50;;
57107;SDS011;42987;52.916;6.542;2022-09-09T17:33:50;5.10;;;2.30;;
57107;SDS011;42987;52.916;6.542;2022-09-09T17:38:44;5.50;;;2.20;;
57107;SDS011;42987;52.916;6.542;2022-09-09T17:41:16;5.47;;;2.40;;
57107;SDS011;42987;52.916;6.542;2022-09-09T17:43:42;5.70;;;2.70;;
57107;SDS011;42987;52.916;6.542;2022-09-09T17:46:09;6.50;;;2.50;;
57107;SDS011;42987;52.916;6.542;2022-09-09T17:48:40;4.35;;;2.03;;
57107;SDS011;42987;52.916;6.542;2022-09-09T17:51:08;6.05;;;2.13;;
57107;SDS011;42987;52.916;6.542;2022-09-09T17:53:37;7.72;;;3.20;;
57107;SDS011;42987;52.916;6.542;2022-09-09T17:56:14;7.78;;;2.97;;
57107;SDS011;42987;52.916;6.542;2022-09-09T17:58:42;6.37;;;2.90;;
57107;SDS011;42987;52.916;6.542;2022-09-09T18:04:04;7.20;;;3.38;;